Historyczne dane pomiarowe

Dodano dane terminowe – wersja testowa.

Dane z okresu 1951-2019

Wersja bazy: 1.34 [2019-03-16, lista zmian], aktualizacja planowana na 2019-04-15

Dane meteo z obszaru Polski uzyskane na podstawie danych udostępnionych przez Instytut Meteorologii i Gospodarki Wodnej – Państwowy Instytut Badawczy.

 

Wybierz Datę:    

       

TemperaturaWilgotnośćWiatrCiśnienieOpadyŚniegCzas trwania zjawisk
 Stacja t tx tn tng RH VA  wxwx mslp ppp RRR   cm mm wxwxwxwxwxwxwx
2012-08-13 15.1 21.6 9.0 6.9-- 2.0----- 0.0------------
2012-08-14 15.7 21.0 10.6 8.7-- 6.0----- 0.0------------
2012-08-15 16.6 23.5 9.4 7.1-- 1.7----- 0.0------------
2012-08-16 17.6 25.5 9.8 8.3-- 4.0----- 0.0------------
2012-08-17 19.3 23.5 16.7 16.1-- 6.3----- 0.0------------
2012-08-18 20.0 27.3 11.9 10.5-- 2.3----- 0.0------------
2012-08-19 22.8 33.2 12.7 11.7-- 0.0----- 0.0------------
2012-08-20 25.8 37.0 15.4 14.7-- 0.3----- 0.0------------
2012-08-21 24.1 29.3 18.7 17.1-- 5.7----- 0.0------------
2012-08-22 23.1 29.8 17.1 16.4-- 4.7----- 0.0------------
2012-08-23 20.4 26.7 15.0 12.7-- 3.7----- 0.0------------
2012-08-24 21.5 29.8 13.7 11.2-- 7.3----- 0.0------------
2012-08-25 23.1 28.6 19.3 17.1-- 5.7----- 7.6------------
2012-08-26 19.2 23.6 16.8 16.0-- 7.3----- 0.3------------
2012-08-27 17.5 21.5 14.6 11.2-- 4.3----- 0.0------------
2012-08-28 16.0 25.0 7.2 4.9-- 0.3----- 0.0------------
2012-08-29 20.1 28.0 13.2 11.8-- 5.0----- 0.0------------
2012-08-30 20.9 31.2 12.4 10.4-- 3.7----- 0.0------------
2012-08-31 18.5 23.9 15.9 15.0-- 8.0----- 12.5------------
2012-09-01 16.2 18.6 13.8 13.7-- 8.0----- 0.1------------
2012-09-02 16.1 19.4 13.9 12.1-- 7.7----- 0.0------------
2012-09-03 17.1 21.3 12.4 10.7-- 8.0----- 0.0------------
2012-09-04 19.0 23.9 15.8 14.8-- 3.0----- 0.0------------
2012-09-05 16.9 23.8 11.0 8.7-- 7.0----- 0.5------------
2012-09-06 15.6 19.4 13.8 10.0-- 4.7----- 0.0------------
2012-09-07 14.7 21.2 6.6 4.5-- 7.3----- 3.5------------
2012-09-08 16.4 19.4 14.2 14.0-- 7.3----- 1.2------------
2012-09-09 17.3 22.8 12.0 9.2-- 2.7----- 0.0------------
2012-09-10 19.1 29.2 11.3 9.2-- 1.0----- 0.0------------
2012-09-11 21.5 31.2 14.1 11.6-- 3.0----- 0.9------------
1106.9 ms

 

Źródłem pochodzenia danych jest Instytut Meteorologii i Gospodarki Wodnej – Państwowy Instytut Badawczy. Dane Instytutu Meteorologii i Gospodarki Wodnej – Państwowego Instytutu Badawczego zostały przetworzone.

Dane źródłowe można odnaleźć na stronie https://dane.imgw.pl